Time;durP1;ratioP1;P1;durP2;ratioP2;P2;SDS_P1;SDS_P2;PMS_P1;PMS_P2;Temp;Humidity;BMP_temperature;BMP_pressure;BME280_temperature;BME280_humidity;BME280_pressure;Samples;Min_cycle;Max_cycle;Signal;HPM_P1;HPM_P2
2021/11/13 00:00:18;;;;;;;0.28;0.28;;;4.00;99.90;;;;;;5071238;28;20189;-76
2021/11/13 00:02:44;;;;;;;1.55;1.45;;;4.00;99.90;;;;;;5071271;28;20188;-77
2021/11/13 00:05:11;;;;;;;0.10;0.10;;;4.00;99.90;;;;;;5070824;28;20168;-77
2021/11/13 00:07:37;;;;;;;0.10;0.10;;;4.00;99.90;;;;;;5071269;28;20176;-76
2021/11/13 00:10:06;;;;;;;0.10;0.10;;;4.00;99.90;;;;;;5069872;28;20167;-77
2021/11/13 00:12:32;;;;;;;0.25;0.25;;;4.10;99.90;;;;;;5071007;28;20201;-77
2021/11/13 00:15:00;;;;;;;0.25;0.25;;;4.00;99.90;;;;;;5071263;28;20152;-76
2021/11/13 00:17:27;;;;;;;0.10;0.10;;;4.00;99.90;;;;;;5069400;28;20171;-76
2021/11/13 00:19:53;;;;;;;0.35;0.35;;;4.00;99.90;;;;;;5058840;28;20204;-77
2021/11/13 00:22:19;;;;;;;0.20;0.20;;;4.00;99.90;;;;;;5050958;28;20162;-77
2021/11/13 00:24:44;;;;;;;4.03;0.68;;;4.00;99.90;;;;;;5049859;28;20196;-77
2021/11/13 00:27:10;;;;;;;0.17;0.17;;;4.00;99.90;;;;;;5050471;28;20189;-77
2021/11/13 00:29:36;;;;;;;1.05;0.93;;;4.00;99.90;;;;;;5050907;28;20150;-76
2021/11/13 00:32:03;;;;;;;1.10;0.73;;;4.00;99.90;;;;;;5065136;28;20184;-76
2021/11/13 00:34:29;;;;;;;0.13;0.13;;;3.90;99.90;;;;;;5070777;28;20251;-76
2021/11/13 00:36:55;;;;;;;0.60;0.60;;;3.90;99.90;;;;;;5070791;28;20200;-77
2021/11/13 00:39:22;;;;;;;0.10;0.10;;;3.90;99.90;;;;;;5069385;28;20215;-77
2021/11/13 00:41:49;;;;;;;0.15;0.15;;;3.90;99.90;;;;;;5069280;28;20230;-76
2021/11/13 00:44:15;;;;;;;0.90;0.90;;;4.00;99.90;;;;;;5070625;28;20153;-77
2021/11/13 00:46:41;;;;;;;0.10;0.10;;;3.90;99.90;;;;;;5070652;28;20208;-77
2021/11/13 00:49:08;;;;;;;0.20;0.20;;;4.00;99.90;;;;;;5069201;28;20168;-77
2021/11/13 00:51:35;;;;;;;0.20;0.20;;;4.00;99.90;;;;;;5069407;28;20263;-76
2021/11/13 00:54:02;;;;;;;0.10;0.10;;;3.90;99.90;;;;;;5070584;28;20181;-78
2021/11/13 00:56:29;;;;;;;0.10;0.10;;;3.90;99.90;;;;;;5070407;28;20243;-77
2021/11/13 00:58:55;;;;;;;1.13;1.08;;;3.90;99.90;;;;;;5069105;28;20176;-76
2021/11/13 01:01:21;;;;;;;0.10;0.10;;;3.90;99.90;;;;;;5069129;28;20230;-76
2021/11/13 01:03:49;;;;;;;0.20;0.20;;;3.90;99.90;;;;;;5069228;28;20610;-76
2021/11/13 01:06:15;;;;;;;0.10;0.10;;;3.90;99.90;;;;;;5070188;28;20159;-77
2021/11/13 01:08:41;;;;;;;0.25;0.25;;;3.90;99.90;;;;;;5070368;28;20189;-77
2021/11/13 01:11:08;;;;;;;0.10;0.10;;;3.90;99.90;;;;;;5068935;28;20168;-76
2021/11/13 01:13:34;;;;;;;0.63;0.63;;;3.90;99.90;;;;;;5068894;28;20161;-76
2021/11/13 01:16:00;;;;;;;0.10;0.10;;;3.90;99.90;;;;;;5068742;28;20580;-77
2021/11/13 01:18:26;;;;;;;0.10;0.10;;;3.80;99.90;;;;;;5068725;28;20254;-77
2021/11/13 01:20:53;;;;;;;0.10;0.10;;;3.90;99.90;;;;;;5070067;28;20199;-77
2021/11/13 01:23:21;;;;;;;0.10;0.10;;;3.90;99.90;;;;;;5070147;28;20163;-77
2021/11/13 01:25:47;;;;;;;0.85;0.85;;;3.90;99.90;;;;;;5069958;28;20153;-76
2021/11/13 01:28:13;;;;;;;0.10;0.10;;;3.90;99.90;;;;;;5069871;28;20197;-76
2021/11/13 01:30:40;;;;;;;0.10;0.10;;;3.90;99.90;;;;;;5068725;28;20192;-76
2021/11/13 01:33:06;;;;;;;0.10;0.10;;;4.00;99.90;;;;;;5069866;28;20180;-76
2021/11/13 01:35:31;;;;;;;0.05;0.05;;;4.00;99.90;;;;;;5068579;28;20160;-76
2021/11/13 01:37:57;;;;;;;0.35;0.35;;;3.90;99.90;;;;;;5069532;28;20562;-76
2021/11/13 01:40:26;;;;;;;0.40;0.40;;;3.90;99.90;;;;;;5068296;28;20200;-76
2021/11/13 01:42:55;;;;;;;0.10;0.10;;;3.90;99.90;;;;;;5068137;28;20200;-77
2021/11/13 01:45:22;;;;;;;0.10;0.10;;;3.90;99.90;;;;;;5069577;28;20165;-76
2021/11/13 01:47:48;;;;;;;0.10;0.10;;;3.90;99.90;;;;;;5069103;28;20163;-76
2021/11/13 01:50:27;;;;;;;0.15;0.15;;;3.90;99.90;;;;;;5068765;28;20161;-76
2021/11/13 01:52:54;;;;;;;0.22;0.22;;;3.90;99.90;;;;;;5069304;28;20263;-76
2021/11/13 01:55:22;;;;;;;0.10;0.10;;;3.90;99.90;;;;;;5069328;28;20299;-76
2021/11/13 01:57:49;;;;;;;0.10;0.10;;;4.00;99.90;;;;;;5069402;28;20180;-76
2021/11/13 02:00:37;;;;;;;0.30;0.30;;;4.00;99.90;;;;;;5068020;28;20212;-76
2021/11/13 02:03:04;;;;;;;0.17;0.17;;;4.00;99.90;;;;;;5067907;28;20188;-76
2021/11/13 02:05:31;;;;;;;2.67;2.28;;;3.90;99.90;;;;;;5069371;28;20181;-76
2021/11/13 02:07:57;;;;;;;0.10;0.10;;;3.90;99.90;;;;;;5069416;28;20157;-76
2021/11/13 02:10:25;;;;;;;0.98;0.98;;;3.90;99.90;;;;;;5068905;28;20168;-76
2021/11/13 02:12:53;;;;;;;0.10;0.10;;;3.90;99.90;;;;;;5069077;28;20226;-76
2021/11/13 02:15:21;;;;;;;0.10;0.10;;;3.90;99.90;;;;;;5069259;28;20228;-77
2021/11/13 02:17:48;;;;;;;0.30;0.30;;;3.90;99.90;;;;;;5067800;28;20208;-77
2021/11/13 02:20:41;;;;;;;0.03;0.03;;;3.90;99.90;;;;;;5067934;28;20257;-76
2021/11/13 02:23:11;;;;;;;0.20;0.20;;;3.90;99.90;;;;;;5068306;28;20204;-76
2021/11/13 02:25:37;;;;;;;0.00;0.00;;;3.90;99.90;;;;;;5068929;28;20525;-76
2021/11/13 02:28:07;;;;;;;0.38;0.38;;;3.90;99.90;;;;;;5067911;28;20161;-76
2021/11/13 02:30:33;;;;;;;0.57;0.57;;;3.80;99.90;;;;;;5068193;28;20173;-76
2021/11/13 02:32:59;;;;;;;0.10;0.10;;;3.80;99.90;;;;;;5069204;28;20196;-76
2021/11/13 02:35:31;;;;;;;0.10;0.10;;;3.80;99.90;;;;;;5068977;28;20164;-76
2021/11/13 02:37:57;;;;;;;0.10;0.10;;;3.80;99.90;;;;;;5069095;28;20214;-76
2021/11/13 02:40:24;;;;;;;0.10;0.10;;;3.80;99.90;;;;;;5068923;28;20633;-77
2021/11/13 02:42:51;;;;;;;0.10;0.10;;;3.80;99.90;;;;;;5068886;28;20192;-76
2021/11/13 02:45:18;;;;;;;0.10;0.10;;;3.80;99.90;;;;;;5067610;28;20168;-75
2021/11/13 02:47:47;;;;;;;0.30;0.30;;;3.80;99.90;;;;;;5068925;28;20171;-76
2021/11/13 02:50:16;;;;;;;0.10;0.10;;;3.70;99.90;;;;;;5067492;28;20176;-76
2021/11/13 02:52:51;;;;;;;0.10;0.10;;;3.70;99.90;;;;;;5068802;28;20192;-77
2021/11/13 02:55:17;;;;;;;0.20;0.20;;;3.70;99.90;;;;;;5068660;28;20220;-77
2021/11/13 02:57:43;;;;;;;0.20;0.20;;;3.70;99.90;;;;;;5068734;28;20194;-77
2021/11/13 03:00:12;;;;;;;0.17;0.17;;;3.70;99.90;;;;;;5068857;28;20165;-77
2021/11/13 03:02:39;;;;;;;0.38;0.38;;;3.70;99.90;;;;;;5067538;28;20192;-77
2021/11/13 03:05:26;;;;;;;0.20;0.20;;;3.70;99.90;;;;;;5068760;28;20161;-77
2021/11/13 03:07:59;;;;;;;1.08;0.98;;;3.70;99.90;;;;;;5068437;28;20534;-76
2021/11/13 03:10:27;;;;;;;0.85;0.85;;;3.70;99.90;;;;;;5067371;28;20165;-77
2021/11/13 03:12:54;;;;;;;0.10;0.10;;;3.70;99.90;;;;;;5067360;28;20207;-77
2021/11/13 03:15:21;;;;;;;1.58;1.52;;;3.70;99.90;;;;;;5068711;28;20161;-77
2021/11/13 03:17:50;;;;;;;0.30;0.30;;;3.70;99.90;;;;;;5068840;28;20183;-77
2021/11/13 03:20:19;;;;;;;0.57;0.57;;;3.60;99.90;;;;;;5067714;28;20196;-76
2021/11/13 03:22:46;;;;;;;0.22;0.22;;;3.60;99.90;;;;;;5069245;28;20199;-76
2021/11/13 03:25:18;;;;;;;0.30;0.30;;;3.60;99.90;;;;;;5071018;28;20256;-76
2021/11/13 03:27:50;;;;;;;0.20;0.20;;;3.60;99.90;;;;;;5070881;28;20169;-76
2021/11/13 03:30:17;;;;;;;0.08;0.08;;;3.60;99.90;;;;;;5070934;28;20229;-77
2021/11/13 03:32:44;;;;;;;0.10;0.10;;;3.60;99.90;;;;;;5070854;28;20750;-76
2021/11/13 03:35:13;;;;;;;0.28;0.28;;;3.70;99.90;;;;;;5070742;28;20169;-76
2021/11/13 03:37:40;;;;;;;0.10;0.10;;;3.70;99.90;;;;;;5058702;28;20213;-76
2021/11/13 03:40:08;;;;;;;0.25;0.25;;;3.60;99.90;;;;;;5050504;28;20204;-76
2021/11/13 03:42:34;;;;;;;0.10;0.10;;;3.60;99.90;;;;;;5050625;28;20239;-77
2021/11/13 03:45:00;;;;;;;0.40;0.40;;;3.60;99.90;;;;;;5050532;28;20177;-76
2021/11/13 03:47:26;;;;;;;0.10;0.10;;;3.70;99.90;;;;;;5050483;28;20208;-76
2021/11/13 03:49:53;;;;;;;0.85;0.85;;;3.70;99.90;;;;;;5050387;28;20169;-76
2021/11/13 03:52:19;;;;;;;0.10;0.10;;;3.70;99.90;;;;;;5051657;28;20249;-76
2021/11/13 03:54:45;;;;;;;0.25;0.25;;;3.70;99.90;;;;;;5051373;28;20173;-77
2021/11/13 03:57:11;;;;;;;0.20;0.20;;;3.80;99.90;;;;;;5051104;28;20244;-76
2021/11/13 03:59:37;;;;;;;0.10;0.10;;;3.80;99.90;;;;;;5050212;28;20184;-76
2021/11/13 04:02:03;;;;;;;0.22;0.22;;;3.80;99.90;;;;;;5050058;28;20232;-76
2021/11/13 04:04:29;;;;;;;0.10;0.10;;;3.80;99.90;;;;;;5050126;28;20176;-76
2021/11/13 04:06:55;;;;;;;0.10;0.10;;;3.70;99.90;;;;;;5051117;28;20227;-76
2021/11/13 04:09:21;;;;;;;0.28;0.28;;;3.70;99.90;;;;;;5049946;28;20170;-77
2021/11/13 04:11:47;;;;;;;0.20;0.20;;;3.80;99.90;;;;;;5051296;28;20508;-76
2021/11/13 04:14:13;;;;;;;0.32;0.32;;;3.80;99.90;;;;;;5049927;28;20223;-77
2021/11/13 04:16:38;;;;;;;0.10;0.10;;;3.90;99.90;;;;;;5050826;28;20197;-76
2021/11/13 04:19:10;;;;;;;0.10;0.10;;;4.00;99.90;;;;;;5051102;28;20176;-76
2021/11/13 04:21:37;;;;;;;0.10;0.10;;;4.10;99.90;;;;;;5050895;28;20185;-76
2021/11/13 04:24:05;;;;;;;0.10;0.10;;;4.10;99.90;;;;;;5051046;28;20154;-76
2021/11/13 04:26:31;;;;;;;0.15;0.15;;;4.10;99.90;;;;;;5050770;28;20185;-76
2021/11/13 04:28:57;;;;;;;0.10;0.10;;;4.10;99.90;;;;;;5049515;28;20668;-76
2021/11/13 04:31:24;;;;;;;0.32;0.32;;;4.10;99.90;;;;;;5049858;28;20243;-76
2021/11/13 04:33:55;;;;;;;0.10;0.10;;;4.10;99.90;;;;;;5050218;28;20181;-76
2021/11/13 04:36:25;;;;;;;0.20;0.20;;;4.10;99.90;;;;;;5050676;28;20153;-76
2021/11/13 04:38:51;;;;;;;0.10;0.10;;;4.00;99.90;;;;;;5050765;28;20192;-76
2021/11/13 04:41:17;;;;;;;0.35;0.35;;;4.00;99.90;;;;;;5049356;28;20201;-76
2021/11/13 04:43:43;;;;;;;0.63;0.63;;;4.00;99.90;;;;;;5049363;28;20169;-75
2021/11/13 04:46:10;;;;;;;0.10;0.10;;;4.00;99.90;;;;;;5049303;28;20188;-75
2021/11/13 04:48:36;;;;;;;0.38;0.38;;;4.00;99.90;;;;;;5050510;28;20169;-76
2021/11/13 04:51:02;;;;;;;0.10;0.10;;;4.00;99.90;;;;;;5050442;28;20161;-75
2021/11/13 04:53:28;;;;;;;0.10;0.10;;;4.10;99.90;;;;;;5051606;28;20173;-77
2021/11/13 04:55:55;;;;;;;0.10;0.10;;;4.10;99.90;;;;;;5050210;28;20225;-77
2021/11/13 04:58:21;;;;;;;0.10;0.10;;;4.00;99.90;;;;;;5051604;28;20196;-75
2021/11/13 05:00:47;;;;;;;0.35;0.35;;;4.00;99.90;;;;;;5049910;28;20255;-75
2021/11/13 05:03:13;;;;;;;0.20;0.20;;;4.00;99.90;;;;;;5048931;28;20168;-75
2021/11/13 05:05:39;;;;;;;0.10;0.10;;;3.90;99.90;;;;;;5049818;28;20166;-76
2021/11/13 05:08:06;;;;;;;0.10;0.10;;;3.90;99.90;;;;;;5048620;28;20192;-75
2021/11/13 05:10:32;;;;;;;0.10;0.10;;;3.90;99.90;;;;;;5050863;28;20166;-77
2021/11/13 05:12:58;;;;;;;0.15;0.15;;;3.90;99.90;;;;;;5051771;28;20623;-78
2021/11/13 05:15:24;;;;;;;0.10;0.10;;;3.90;99.90;;;;;;5050240;28;20167;-75
2021/11/13 05:17:50;;;;;;;0.10;0.10;;;3.80;99.90;;;;;;5049887;28;20201;-75
2021/11/13 05:20:18;;;;;;;0.10;0.10;;;3.90;99.90;;;;;;5048597;28;20173;-76
2021/11/13 05:22:47;;;;;;;0.10;0.10;;;3.90;99.90;;;;;;5049869;28;20162;-75
2021/11/13 05:25:15;;;;;;;0.38;0.38;;;3.90;99.90;;;;;;5048557;28;20180;-75
2021/11/13 05:27:41;;;;;;;0.10;0.10;;;3.90;99.90;;;;;;5049560;28;20190;-76
2021/11/13 05:30:11;;;;;;;0.40;0.40;;;3.90;99.90;;;;;;5050270;28;20221;-77
2021/11/13 05:32:39;;;;;;;0.30;0.30;;;3.90;99.90;;;;;;5049383;28;20302;-77
2021/11/13 05:35:06;;;;;;;0.10;0.10;;;3.90;99.90;;;;;;5048703;28;20178;-75
2021/11/13 05:37:31;;;;;;;0.10;0.10;;;3.90;99.90;;;;;;5048250;28;20200;-76
2021/11/13 05:39:58;;;;;;;0.10;0.10;;;3.90;99.90;;;;;;5049447;28;20157;-76
2021/11/13 05:42:23;;;;;;;0.10;0.10;;;3.90;99.90;;;;;;5047952;28;20204;-76
2021/11/13 05:44:50;;;;;;;0.10;0.10;;;3.90;99.90;;;;;;5047979;28;20169;-76
2021/11/13 05:47:16;;;;;;;0.80;0.80;;;3.90;99.90;;;;;;5048612;28;20257;-76
2021/11/13 05:49:42;;;;;;;0.47;0.47;;;3.90;99.90;;;;;;5048227;28;20165;-76
2021/11/13 05:52:11;;;;;;;0.20;0.20;;;3.90;99.90;;;;;;5048256;28;20165;-76
2021/11/13 05:54:37;;;;;;;0.00;0.00;;;3.90;99.90;;;;;;5048139;28;20185;-76
2021/11/13 05:57:03;;;;;;;0.10;0.10;;;3.90;99.90;;;;;;5047895;28;20220;-76
2021/11/13 05:59:29;;;;;;;1.27;1.27;;;4.00;99.90;;;;;;5048636;28;20169;-78
2021/11/13 06:01:55;;;;;;;0.10;0.10;;;4.00;99.90;;;;;;5049281;28;20192;-77
2021/11/13 06:04:21;;;;;;;0.10;0.10;;;4.10;99.90;;;;;;5047985;28;20193;-76
2021/11/13 06:06:47;;;;;;;0.10;0.10;;;4.10;99.90;;;;;;5047799;28;20231;-77
2021/11/13 06:09:12;;;;;;;0.77;0.70;;;4.10;99.90;;;;;;5047914;28;20560;-77
2021/11/13 06:11:38;;;;;;;0.57;0.57;;;4.10;99.90;;;;;;5049221;28;20173;-76
2021/11/13 06:14:04;;;;;;;0.10;0.10;;;4.10;99.90;;;;;;5049253;28;20176;-76
2021/11/13 06:16:30;;;;;;;0.22;0.22;;;4.10;99.90;;;;;;5048858;28;20189;-76
2021/11/13 06:18:56;;;;;;;0.20;0.20;;;4.00;99.90;;;;;;5047679;28;20176;-76
2021/11/13 06:21:22;;;;;;;2.30;1.48;;;4.00;99.90;;;;;;5049042;28;20211;-77
2021/11/13 06:23:48;;;;;;;0.10;0.10;;;4.00;99.90;;;;;;5048207;28;20169;-77
2021/11/13 06:26:15;;;;;;;0.57;0.57;;;4.00;99.90;;;;;;5049713;28;20195;-77
2021/11/13 06:28:41;;;;;;;0.10;0.10;;;4.00;99.90;;;;;;5049005;28;20169;-77
2021/11/13 06:31:08;;;;;;;0.10;0.10;;;4.00;99.90;;;;;;5050203;28;20162;-77
2021/11/13 06:33:35;;;;;;;0.30;0.30;;;4.10;99.90;;;;;;5049768;28;20673;-77
2021/11/13 06:36:01;;;;;;;0.38;0.38;;;4.10;99.90;;;;;;5050229;28;20149;-78
2021/11/13 06:38:26;;;;;;;0.15;0.15;;;4.10;99.90;;;;;;5048475;28;20250;-77
2021/11/13 06:40:52;;;;;;;0.10;0.10;;;4.10;99.90;;;;;;5048506;28;20205;-78
2021/11/13 06:43:19;;;;;;;0.25;0.25;;;4.10;99.90;;;;;;5049725;28;20166;-78
2021/11/13 06:45:45;;;;;;;0.10;0.10;;;4.10;99.90;;;;;;5048824;28;20173;-78
2021/11/13 06:48:11;;;;;;;0.47;0.47;;;4.10;99.90;;;;;;5048465;28;20220;-78
2021/11/13 06:50:37;;;;;;;3.10;1.35;;;4.20;99.90;;;;;;5049485;28;20162;-78
2021/11/13 06:53:03;;;;;;;0.20;0.20;;;4.30;99.90;;;;;;5049670;28;20161;-78
2021/11/13 06:55:30;;;;;;;0.32;0.32;;;4.40;99.90;;;;;;5047990;28;20285;-78
2021/11/13 06:57:57;;;;;;;0.10;0.10;;;4.50;99.90;;;;;;5051282;28;20200;-78
2021/11/13 07:00:23;;;;;;;0.30;0.30;;;4.60;99.90;;;;;;5053129;28;20612;-78
2021/11/13 07:02:49;;;;;;;1.38;1.38;;;4.50;99.90;;;;;;5051787;28;20207;-78
2021/11/13 07:05:15;;;;;;;0.55;0.55;;;4.50;99.90;;;;;;5051722;28;20642;-78
2021/11/13 07:07:42;;;;;;;0.00;0.00;;;4.50;99.90;;;;;;5051377;28;20264;-78
2021/11/13 07:10:15;;;;;;;1.08;0.50;;;4.50;99.90;;;;;;5052510;28;20161;-78
2021/11/13 07:12:42;;;;;;;0.10;0.10;;;4.60;99.90;;;;;;5052333;28;20153;-77
2021/11/13 07:15:09;;;;;;;0.10;0.10;;;4.80;99.90;;;;;;5051007;28;20188;-78
2021/11/13 07:17:35;;;;;;;0.10;0.10;;;4.60;99.90;;;;;;5050930;28;20194;-77
2021/11/13 07:20:02;;;;;;;0.20;0.20;;;4.60;99.90;;;;;;5050854;28;20207;-79
2021/11/13 07:22:28;;;;;;;0.10;0.10;;;4.50;99.90;;;;;;5051871;28;20157;-79
2021/11/13 07:24:54;;;;;;;1.88;1.75;;;4.50;99.90;;;;;;5052186;28;20225;-76
2021/11/13 07:27:20;;;;;;;0.68;0.68;;;4.50;99.90;;;;;;5051960;28;20284;-76
2021/11/13 07:30:03;;;;;;;0.10;0.10;;;4.50;99.90;;;;;;5050746;28;20173;-78
2021/11/13 07:32:31;;;;;;;0.35;0.35;;;4.50;99.90;;;;;;5053486;28;20187;-78
2021/11/13 07:34:57;;;;;;;0.10;0.10;;;4.50;99.90;;;;;;5051790;28;20181;-78
2021/11/13 07:37:24;;;;;;;0.10;0.10;;;4.50;99.90;;;;;;5051346;28;20296;-77
2021/11/13 07:39:53;;;;;;;0.10;0.10;;;4.50;99.90;;;;;;5050477;28;20173;-76
2021/11/13 07:42:19;;;;;;;1.00;1.00;;;4.40;99.90;;;;;;5050335;28;20208;-76
2021/11/13 07:44:45;;;;;;;1.33;1.23;;;4.50;99.90;;;;;;5051661;28;20209;-77
2021/11/13 07:47:11;;;;;;;0.20;0.20;;;4.50;99.90;;;;;;5050267;28;20188;-76
2021/11/13 07:49:37;;;;;;;0.73;0.73;;;4.50;99.90;;;;;;5051473;28;20189;-77
2021/11/13 07:52:04;;;;;;;0.47;0.47;;;4.50;99.90;;;;;;5050057;28;20186;-77
2021/11/13 07:54:30;;;;;;;1.08;1.08;;;4.50;99.90;;;;;;5051667;28;20157;-77
2021/11/13 07:56:56;;;;;;;0.47;0.47;;;4.60;99.90;;;;;;5051268;28;20287;-78
2021/11/13 07:59:22;;;;;;;0.10;0.10;;;4.60;99.90;;;;;;5051398;28;20222;-78
2021/11/13 08:01:48;;;;;;;0.10;0.10;;;4.60;99.90;;;;;;5051269;28;20197;-79
2021/11/13 08:04:14;;;;;;;0.90;0.43;;;4.60;99.90;;;;;;5049887;28;20177;-78
2021/11/13 08:06:40;;;;;;;0.13;0.13;;;4.60;99.90;;;;;;5051200;28;20196;-78
2021/11/13 08:09:06;;;;;;;1.27;1.23;;;4.70;99.90;;;;;;5048746;28;20188;-79
2021/11/13 08:11:32;;;;;;;0.05;0.05;;;4.80;99.90;;;;;;5050024;28;20189;-79
2021/11/13 08:13:58;;;;;;;0.40;0.40;;;4.90;99.90;;;;;;5051254;28;20162;-79
2021/11/13 08:16:25;;;;;;;1.08;1.08;;;5.00;99.90;;;;;;5049784;28;20181;-79
2021/11/13 08:18:50;;;;;;;0.73;0.73;;;5.10;99.90;;;;;;5049883;28;20175;-78
2021/11/13 08:21:16;;;;;;;0.20;0.20;;;5.00;99.90;;;;;;5051153;28;20268;-79
2021/11/13 08:23:42;;;;;;;0.20;0.20;;;4.80;99.90;;;;;;5051119;28;20157;-77
2021/11/13 08:26:09;;;;;;;0.20;0.20;;;4.60;99.90;;;;;;5050925;28;20211;-78
2021/11/13 08:28:36;;;;;;;0.10;0.10;;;4.60;99.90;;;;;;5049799;28;20178;-78
2021/11/13 08:31:02;;;;;;;0.43;0.43;;;4.60;99.90;;;;;;5051197;28;20165;-79
2021/11/13 08:33:29;;;;;;;0.10;0.10;;;4.70;99.90;;;;;;5049809;28;20182;-79
2021/11/13 08:35:56;;;;;;;0.08;0.08;;;4.60;99.90;;;;;;5051164;28;20184;-79
2021/11/13 08:38:23;;;;;;;0.70;0.70;;;4.60;99.90;;;;;;5050577;28;20565;-79
2021/11/13 08:40:52;;;;;;;0.00;0.00;;;4.70;99.90;;;;;;5049242;28;20247;-78
2021/11/13 08:43:19;;;;;;;0.20;0.20;;;4.70;99.90;;;;;;5052191;28;20184;-78
2021/11/13 08:45:47;;;;;;;0.25;0.25;;;4.70;99.90;;;;;;5069269;28;20181;-80
2021/11/13 08:48:14;;;;;;;1.08;1.08;;;4.60;99.90;;;;;;5070276;28;20186;-80
2021/11/13 08:50:40;;;;;;;0.50;0.50;;;4.60;99.90;;;;;;5070435;28;20168;-80
2021/11/13 08:53:07;;;;;;;0.10;0.10;;;4.50;99.90;;;;;;5068367;28;20169;-80
2021/11/13 08:55:35;;;;;;;0.20;0.20;;;4.60;99.90;;;;;;5070039;28;20231;-81
2021/11/13 08:58:03;;;;;;;0.10;0.10;;;4.80;99.90;;;;;;5070096;28;20191;-80
2021/11/13 09:00:50;;;;;;;0.13;0.13;;;4.80;99.90;;;;;;5068705;28;20209;-80
2021/11/13 09:03:30;;;;;;;0.10;0.10;;;5.00;99.90;;;;;;5069748;28;20153;-80
2021/11/13 09:05:58;;;;;;;0.20;0.20;;;5.20;99.90;;;;;;5068469;28;20263;-80
2021/11/13 09:08:25;;;;;;;0.10;0.10;;;5.30;99.90;;;;;;5069791;28;20200;-80
2021/11/13 09:10:53;;;;;;;2.40;0.73;;;5.50;99.90;;;;;;5070019;28;20180;-80
2021/11/13 09:13:23;;;;;;;0.57;0.57;;;5.50;99.90;;;;;;5069762;28;20157;-80
2021/11/13 09:15:50;;;;;;;0.95;0.95;;;5.60;99.90;;;;;;5067942;28;20199;-80
2021/11/13 09:18:16;;;;;;;0.47;0.47;;;5.70;99.90;;;;;;5064859;28;20185;-80
2021/11/13 09:20:42;;;;;;;1.00;0.47;;;5.70;99.90;;;;;;5055871;28;20354;-80
2021/11/13 09:23:13;;;;;;;1.38;1.20;;;5.70;99.90;;;;;;5060258;28;20161;-80
2021/11/13 09:25:40;;;;;;;2.35;1.00;;;5.80;99.90;;;;;;5047441;28;20177;-79
2021/11/13 09:28:06;;;;;;;0.47;0.47;;;5.60;99.90;;;;;;5067230;28;20164;-78
2021/11/13 09:30:36;;;;;;;0.10;0.10;;;5.40;99.90;;;;;;5068035;28;20171;-79
2021/11/13 09:33:04;;;;;;;0.40;0.40;;;5.50;99.90;;;;;;5068326;28;20224;-79
2021/11/13 09:35:31;;;;;;;0.10;0.10;;;5.70;99.90;;;;;;5057364;28;20168;-80
2021/11/13 09:37:57;;;;;;;0.25;0.25;;;5.80;99.90;;;;;;5068073;28;20191;-79
2021/11/13 09:40:25;;;;;;;0.10;0.10;;;5.80;99.90;;;;;;5056326;28;20161;-80
2021/11/13 09:42:54;;;;;;;0.25;0.25;;;5.90;99.90;;;;;;5055716;28;20173;-79
2021/11/13 09:45:22;;;;;;;0.10;0.10;;;6.10;99.90;;;;;;5056809;28;20166;-79
2021/11/13 09:47:52;;;;;;;0.32;0.32;;;6.20;99.90;;;;;;5056266;28;20193;-79
2021/11/13 09:50:20;;;;;;;0.32;0.32;;;6.00;99.90;;;;;;5056664;28;20226;-79
2021/11/13 09:52:46;;;;;;;0.10;0.10;;;5.90;99.90;;;;;;5056703;28;20184;-79
2021/11/13 09:55:14;;;;;;;0.20;0.20;;;6.00;99.90;;;;;;5056668;28;20253;-79
2021/11/13 09:57:41;;;;;;;0.38;0.38;;;6.10;99.90;;;;;;5056659;28;20197;-80
2021/11/13 10:00:14;;;;;;;1.20;0.80;;;6.20;99.90;;;;;;5056305;28;20242;-79
2021/11/13 10:02:41;;;;;;;0.10;0.10;;;6.20;99.90;;;;;;5057535;28;20232;-79
2021/11/13 10:05:08;;;;;;;0.15;0.15;;;6.20;99.90;;;;;;5056568;28;20165;-79
2021/11/13 10:07:35;;;;;;;0.40;0.40;;;6.30;99.90;;;;;;5054672;28;20197;-79
2021/11/13 10:10:07;;;;;;;0.32;0.32;;;6.30;99.90;;;;;;5057984;28;20247;-79
2021/11/13 10:12:40;;;;;;;0.10;0.10;;;6.40;99.90;;;;;;5057002;28;20177;-80
2021/11/13 10:15:41;;;;;;;3.47;1.52;;;6.40;99.90;;;;;;5057514;28;20153;-79
2021/11/13 10:18:13;;;;;;;0.10;0.10;;;5.80;99.90;;;;;;5055991;28;20215;-79
2021/11/13 10:20:47;;;;;;;1.17;0.52;;;5.70;99.90;;;;;;5037692;28;20305;-80
2021/11/13 10:23:25;;;;;;;0.95;0.95;;;5.70;99.90;;;;;;5056749;28;20292;-78
2021/11/13 10:26:10;;;;;;;1.38;0.73;;;5.60;99.90;;;;;;5041765;28;20449;-78
2021/11/13 10:28:47;;;;;;;0.15;0.15;;;5.80;99.90;;;;;;5039337;28;20224;-78
2021/11/13 10:31:23;;;;;;;0.57;0.57;;;5.90;99.90;;;;;;5036404;28;20205;-79
2021/11/13 10:33:50;;;;;;;2.90;1.58;;;5.90;99.90;;;;;;5057076;28;20176;-79
2021/11/13 10:36:47;;;;;;;3.63;0.75;;;6.00;99.90;;;;;;5070354;28;20207;-79
2021/11/13 10:39:17;;;;;;;0.32;0.32;;;5.90;99.90;;;;;;5068825;28;20211;-79
2021/11/13 10:41:55;;;;;;;2.60;2.08;;;6.00;99.90;;;;;;5068806;28;20204;-79
2021/11/13 10:44:28;;;;;;;1.30;0.63;;;5.90;99.90;;;;;;5053844;28;20193;-79
2021/11/13 10:46:55;;;;;;;1.35;1.17;;;6.00;99.90;;;;;;5070616;28;20235;-79
2021/11/13 10:49:23;;;;;;;0.13;0.13;;;6.10;99.90;;;;;;5069931;28;20196;-79
2021/11/13 10:51:58;;;;;;;1.05;1.05;;;5.90;99.90;;;;;;5063258;28;20268;-79
2021/11/13 10:54:24;;;;;;;0.20;0.20;;;5.80;99.90;;;;;;5065760;28;20307;-79
2021/11/13 10:56:52;;;;;;;0.28;0.28;;;5.60;99.90;;;;;;5070960;28;20220;-79
2021/11/13 10:59:24;;;;;;;0.10;0.10;;;5.50;99.90;;;;;;5071312;28;20187;-77
2021/11/13 11:01:51;;;;;;;0.40;0.40;;;5.70;99.90;;;;;;5072700;28;20188;-78
2021/11/13 11:04:23;;;;;;;0.13;0.13;;;5.80;99.90;;;;;;5068008;28;20182;-78
2021/11/13 11:07:01;;;;;;;6.75;1.13;;;5.80;99.90;;;;;;5054964;28;20213;-78
2021/11/13 11:09:32;;;;;;;1.17;0.88;;;5.90;99.90;;;;;;5072269;28;20156;-78
2021/11/13 11:12:01;;;;;;;0.10;0.10;;;5.90;99.90;;;;;;5066286;28;20217;-76
2021/11/13 11:14:31;;;;;;;0.22;0.22;;;5.90;99.90;;;;;;5060990;28;20177;-78
2021/11/13 11:17:04;;;;;;;0.10;0.10;;;5.90;99.90;;;;;;5034628;28;20176;-79
2021/11/13 11:19:32;;;;;;;0.20;0.20;;;5.80;99.90;;;;;;5050181;28;20197;-77
2021/11/13 11:22:09;;;;;;;0.20;0.20;;;5.80;99.90;;;;;;5049680;28;20193;-79
2021/11/13 11:24:49;;;;;;;1.80;1.17;;;5.80;99.90;;;;;;5052869;28;20172;-77
2021/11/13 11:27:28;;;;;;;4.10;1.83;;;5.80;99.90;;;;;;5064968;28;20187;-76
2021/11/13 11:30:06;;;;;;;0.10;0.10;;;5.90;99.90;;;;;;5072213;28;20188;-78
2021/11/13 11:32:55;;;;;;;0.10;0.10;;;5.90;99.90;;;;;;5052539;28;20665;-77
2021/11/13 11:35:27;;;;;;;0.10;0.10;;;5.70;99.90;;;;;;5042714;28;20216;-78
2021/11/13 11:37:59;;;;;;;0.13;0.13;;;5.60;99.90;;;;;;5060024;28;20253;-77
2021/11/13 11:40:28;;;;;;;0.50;0.50;;;5.60;99.90;;;;;;5054935;28;20176;-78
2021/11/13 11:42:55;;;;;;;0.52;0.50;;;5.60;99.90;;;;;;5068349;28;20281;-77
2021/11/13 11:45:24;;;;;;;3.25;2.67;;;5.60;99.90;;;;;;5050123;28;20177;-78
2021/11/13 11:47:51;;;;;;;1.50;1.17;;;5.80;99.90;;;;;;5063471;28;20177;-78
2021/11/13 11:50:26;;;;;;;0.50;0.50;;;6.00;99.90;;;;;;5059973;28;20178;-77
2021/11/13 11:52:53;;;;;;;0.35;0.35;;;6.00;99.90;;;;;;5060027;28;20192;-77
2021/11/13 11:55:20;;;;;;;0.10;0.10;;;6.00;99.90;;;;;;5067860;28;20821;-78
2021/11/13 11:57:55;;;;;;;3.80;3.50;;;6.00;99.90;;;;;;5063757;28;20192;-76
2021/11/13 12:00:24;;;;;;;0.63;0.63;;;6.00;99.90;;;;;;5063824;28;20168;-76
2021/11/13 12:02:54;;;;;;;0.10;0.10;;;5.80;99.90;;;;;;5081231;28;20226;-78
2021/11/13 12:05:31;;;;;;;0.10;0.10;;;5.70;99.90;;;;;;5083796;28;20179;-77
2021/11/13 12:08:18;;;;;;;0.10;0.10;;;5.80;99.90;;;;;;5078251;28;20190;-78
2021/11/13 12:10:46;;;;;;;1.17;0.55;;;5.70;99.90;;;;;;5063611;28;20173;-79
2021/11/13 12:13:15;;;;;;;0.20;0.20;;;5.60;99.90;;;;;;5069048;28;20185;-78
2021/11/13 12:16:02;;;;;;;0.20;0.20;;;5.50;99.90;;;;;;5069665;28;20181;-77
2021/11/13 12:18:30;;;;;;;0.10;0.10;;;5.60;99.90;;;;;;5070922;28;20160;-78
2021/11/13 12:21:03;;;;;;;1.95;0.65;;;5.60;99.90;;;;;;5070765;28;20200;-77
2021/11/13 12:23:30;;;;;;;0.00;0.00;;;5.70;99.90;;;;;;5059296;28;20189;-77
2021/11/13 12:25:58;;;;;;;0.17;0.17;;;5.90;99.90;;;;;;5052015;28;20154;-78
2021/11/13 12:28:26;;;;;;;0.10;0.10;;;6.10;99.90;;;;;;5068958;28;20169;-77
2021/11/13 12:31:09;;;;;;;0.20;0.20;;;6.10;99.90;;;;;;5070496;28;20176;-78
2021/11/13 12:33:35;;;;;;;0.10;0.10;;;5.90;99.90;;;;;;5070240;28;20161;-77
2021/11/13 12:36:06;;;;;;;3.10;2.83;;;5.90;99.90;;;;;;5068945;28;20203;-78
2021/11/13 12:38:55;;;;;;;0.20;0.20;;;5.70;99.90;;;;;;5070595;28;20161;-78
2021/11/13 12:41:25;;;;;;;0.32;0.32;;;5.70;99.90;;;;;;5060675;28;20201;-78
2021/11/13 12:43:55;;;;;;;0.38;0.38;;;5.80;99.90;;;;;;5052823;28;20246;-78
2021/11/13 12:46:37;;;;;;;1.65;1.27;;;5.70;99.90;;;;;;5058069;28;20177;-78
2021/11/13 12:49:18;;;;;;;0.30;0.30;;;5.60;99.90;;;;;;5068571;28;20172;-78
2021/11/13 12:51:50;;;;;;;0.10;0.10;;;5.50;99.90;;;;;;5068313;28;20204;-76
2021/11/13 12:54:24;;;;;;;0.13;0.13;;;5.40;99.90;;;;;;5067874;28;20180;-78
2021/11/13 12:57:05;;;;;;;0.28;0.28;;;5.40;99.90;;;;;;5069158;28;20246;-77
2021/11/13 12:59:34;;;;;;;0.25;0.25;;;5.50;99.90;;;;;;5049916;28;20177;-78
2021/11/13 13:02:20;;;;;;;8.10;1.98;;;5.40;99.90;;;;;;5048239;28;20235;-77
2021/11/13 13:04:47;;;;;;;0.10;0.10;;;5.40;99.90;;;;;;5067554;28;20606;-78